createdAt,value
2022-10-10T00:01:36.086Z,6.28
2022-10-10T00:04:05.748Z,5.85
2022-10-10T00:06:34.128Z,6.20
2022-10-10T00:09:03.055Z,5.78
2022-10-10T00:11:31.185Z,5.47
2022-10-10T00:13:58.638Z,6.10
2022-10-10T00:16:26.187Z,5.88
2022-10-10T00:18:53.857Z,6.28
2022-10-10T00:21:21.255Z,6.03
2022-10-10T00:23:48.718Z,5.90
2022-10-10T00:26:19.276Z,5.55
2022-10-10T00:28:47.893Z,6.00
2022-10-10T00:31:16.235Z,5.82
2022-10-10T00:33:44.083Z,5.90
2022-10-10T00:36:11.629Z,6.10
2022-10-10T00:38:39.000Z,5.88
2022-10-10T00:41:06.947Z,5.47
2022-10-10T00:43:35.103Z,5.72
2022-10-10T00:46:02.655Z,5.95
2022-10-10T00:48:35.203Z,5.88
2022-10-10T00:51:11.397Z,6.10
2022-10-10T00:53:46.060Z,5.40
2022-10-10T00:56:19.246Z,5.38
2022-10-10T00:58:53.258Z,5.28
2022-10-10T01:01:21.016Z,5.95
2022-10-10T01:03:49.274Z,6.40
2022-10-10T01:06:17.062Z,5.72
2022-10-10T01:08:44.623Z,5.72
2022-10-10T01:11:26.869Z,6.35
2022-10-10T01:14:47.507Z,6.35
2022-10-10T01:17:33.806Z,6.43
2022-10-10T01:20:41.916Z,5.72
2022-10-10T01:24:07.497Z,5.63
2022-10-10T01:26:47.983Z,6.22
2022-10-10T01:29:31.149Z,5.75
2022-10-10T01:32:33.327Z,6.25
2022-10-10T01:35:52.157Z,5.85
2022-10-10T01:38:32.400Z,6.47
2022-10-10T01:41:22.931Z,6.65
2022-10-10T01:43:56.143Z,6.43
2022-10-10T01:46:24.865Z,6.18
2022-10-10T01:48:57.658Z,6.47
2022-10-10T01:51:57.073Z,6.78
2022-10-10T01:54:34.286Z,6.25
2022-10-10T01:57:26.335Z,6.50
2022-10-10T02:02:55.529Z,6.70
2022-10-10T02:05:39.391Z,6.95
2022-10-10T02:08:26.501Z,7.35
2022-10-10T02:11:00.721Z,7.20
2022-10-10T02:13:39.108Z,6.78
2022-10-10T02:16:19.451Z,7.10
2022-10-10T02:18:50.784Z,6.65
2022-10-10T02:21:19.843Z,6.93
2022-10-10T02:23:50.893Z,6.90
2022-10-10T02:26:21.754Z,6.85
2022-10-10T02:29:15.166Z,7.30
2022-10-10T02:32:05.670Z,6.95
2022-10-10T02:34:44.643Z,7.53
2022-10-10T02:37:16.174Z,7.72
2022-10-10T02:39:51.814Z,7.70
2022-10-10T02:42:23.915Z,8.05
2022-10-10T02:44:52.268Z,7.43
2022-10-10T02:47:19.699Z,8.00
2022-10-10T02:49:47.989Z,7.75
2022-10-10T02:52:17.554Z,8.02
2022-10-10T02:54:45.094Z,7.70
2022-10-10T02:57:12.608Z,7.82
2022-10-10T02:59:40.271Z,7.65
2022-10-10T03:02:08.121Z,8.25
2022-10-10T03:04:36.698Z,8.00
2022-10-10T03:07:05.273Z,7.53
2022-10-10T03:09:33.704Z,7.70
2022-10-10T03:12:01.306Z,7.55
2022-10-10T03:14:28.778Z,7.45
2022-10-10T03:16:56.244Z,7.90
2022-10-10T03:19:23.763Z,8.27
2022-10-10T03:21:51.152Z,7.95
2022-10-10T03:24:18.732Z,7.07
2022-10-10T03:26:47.200Z,7.75
2022-10-10T03:29:15.730Z,7.72
2022-10-10T03:31:43.760Z,7.82
2022-10-10T03:34:11.285Z,8.68
2022-10-10T03:36:38.797Z,7.43
2022-10-10T03:39:07.838Z,6.97
2022-10-10T03:41:36.453Z,7.63
2022-10-10T03:44:04.066Z,7.97
2022-10-10T03:46:31.590Z,7.57
2022-10-10T03:48:59.013Z,8.07
2022-10-10T03:51:27.609Z,7.68
2022-10-10T03:53:55.050Z,7.38
2022-10-10T03:56:22.678Z,7.57
2022-10-10T03:58:50.140Z,7.63
2022-10-10T04:01:17.623Z,7.18
2022-10-10T04:03:48.631Z,7.05
2022-10-10T04:06:19.487Z,8.27
2022-10-10T04:08:47.499Z,7.07
2022-10-10T04:11:14.990Z,7.53
2022-10-10T04:13:42.432Z,7.78
2022-10-10T04:16:09.871Z,7.55
2022-10-10T04:18:37.343Z,7.93
2022-10-10T04:21:06.267Z,7.40
2022-10-10T04:23:33.708Z,7.30
2022-10-10T04:26:01.703Z,7.22
2022-10-10T04:28:29.213Z,7.10
2022-10-10T04:30:57.798Z,6.78
2022-10-10T04:33:25.610Z,6.60
2022-10-10T04:35:53.008Z,6.68
2022-10-10T04:38:21.311Z,7.18
2022-10-10T04:40:50.813Z,6.60
2022-10-10T04:43:19.231Z,6.68
2022-10-10T04:45:47.893Z,7.05
2022-10-10T04:48:15.296Z,7.30
2022-10-10T04:50:42.752Z,7.32
2022-10-10T04:53:11.769Z,7.18
2022-10-10T04:55:39.153Z,7.07
2022-10-10T04:58:06.556Z,6.80
2022-10-10T05:00:34.062Z,6.75
2022-10-10T05:03:01.552Z,7.07
2022-10-10T05:05:29.155Z,7.28
2022-10-10T05:07:56.611Z,7.28
2022-10-10T05:10:25.494Z,7.40
2022-10-10T05:12:53.316Z,7.22
2022-10-10T05:15:24.821Z,7.80
2022-10-10T05:17:53.373Z,8.32
2022-10-10T05:20:22.069Z,7.80
2022-10-10T05:22:49.831Z,7.65
2022-10-10T05:25:17.505Z,7.70
2022-10-10T05:27:45.106Z,7.93
2022-10-10T05:30:13.841Z,7.10
2022-10-10T05:32:42.314Z,8.25
2022-10-10T05:35:10.125Z,8.27
2022-10-10T05:37:38.052Z,7.22
2022-10-10T05:40:06.173Z,8.38
2022-10-10T05:42:39.458Z,8.35
2022-10-10T05:45:07.530Z,8.32
2022-10-10T05:47:34.920Z,8.90
2022-10-10T05:50:02.386Z,8.95
2022-10-10T05:52:29.868Z,8.32
2022-10-10T05:54:57.263Z,8.20
2022-10-10T05:57:26.913Z,9.00
2022-10-10T05:59:54.945Z,8.88
2022-10-10T06:02:22.520Z,8.25
2022-10-10T06:04:50.938Z,9.15
2022-10-10T06:07:20.425Z,8.98
2022-10-10T06:09:47.985Z,8.75
2022-10-10T06:12:20.008Z,9.10
2022-10-10T06:14:47.398Z,9.07
2022-10-10T06:17:15.325Z,9.15
2022-10-10T06:19:43.240Z,8.27
2022-10-10T06:22:12.801Z,8.77
2022-10-10T06:24:40.277Z,7.97
2022-10-10T06:27:09.143Z,8.88
2022-10-10T06:29:36.500Z,8.75
2022-10-10T06:32:03.898Z,9.27
2022-10-10T06:34:31.410Z,8.63
2022-10-10T06:36:58.924Z,8.73
2022-10-10T06:39:26.708Z,8.35
2022-10-10T06:41:54.329Z,8.30
2022-10-10T06:44:21.824Z,9.27
2022-10-10T06:46:49.244Z,7.75
2022-10-10T06:49:16.718Z,8.52
2022-10-10T06:51:44.219Z,8.43
2022-10-10T06:54:12.090Z,9.43
2022-10-10T06:56:39.604Z,8.48
2022-10-10T06:59:07.310Z,8.88
2022-10-10T07:01:34.818Z,8.90
2022-10-10T07:04:02.269Z,8.40
2022-10-10T07:06:33.974Z,9.10
2022-10-10T07:09:02.485Z,9.48
2022-10-10T07:11:30.213Z,9.20
2022-10-10T07:13:57.738Z,9.15
2022-10-10T07:16:25.104Z,9.10
2022-10-10T07:18:52.582Z,8.70
2022-10-10T07:21:20.071Z,8.82
2022-10-10T07:23:47.434Z,8.07
2022-10-10T07:26:22.058Z,8.23
2022-10-10T07:28:49.898Z,8.63
2022-10-10T07:31:17.387Z,8.55
2022-10-10T07:33:50.709Z,8.15
2022-10-10T07:36:18.974Z,7.93
2022-10-10T07:38:51.938Z,8.02
2022-10-10T07:41:20.861Z,8.07
2022-10-10T07:43:53.898Z,8.15
2022-10-10T07:46:22.077Z,8.68
2022-10-10T07:48:49.658Z,8.88
2022-10-10T07:51:17.823Z,7.72
2022-10-10T07:53:45.383Z,8.32
2022-10-10T07:56:12.832Z,7.63
2022-10-10T07:58:40.562Z,8.50
2022-10-10T08:01:12.085Z,7.72
2022-10-10T08:03:40.949Z,8.07
2022-10-10T08:06:13.146Z,7.90
2022-10-10T08:08:50.355Z,7.32
2022-10-10T08:11:21.921Z,8.00
2022-10-10T08:13:50.520Z,7.68
2022-10-10T08:16:18.585Z,6.90
2022-10-10T08:18:46.530Z,7.50
2022-10-10T08:21:16.138Z,6.93
2022-10-10T08:23:43.951Z,7.13
2022-10-10T08:26:14.735Z,6.82
2022-10-10T08:28:42.956Z,7.27
2022-10-10T08:31:15.269Z,6.35
2022-10-10T08:33:45.992Z,6.45
2022-10-10T08:36:21.281Z,6.55
2022-10-10T08:38:48.880Z,6.50
2022-10-10T08:41:54.382Z,6.90
2022-10-10T08:44:32.183Z,5.85
2022-10-10T08:47:10.670Z,6.15
2022-10-10T08:49:58.944Z,5.85
2022-10-10T08:53:06.682Z,5.72
2022-10-10T08:55:39.489Z,5.40
2022-10-10T08:58:23.936Z,5.30
2022-10-10T09:01:08.118Z,5.00
2022-10-10T09:03:46.666Z,5.18
2022-10-10T09:06:54.180Z,5.20
2022-10-10T09:09:48.465Z,5.68
2022-10-10T09:12:40.868Z,5.30
2022-10-10T09:15:38.390Z,5.28
2022-10-10T09:18:53.846Z,5.85
2022-10-10T09:21:31.136Z,5.65
2022-10-10T09:24:08.540Z,5.50
2022-10-10T09:26:47.942Z,5.70
2022-10-10T09:29:53.503Z,5.22
2022-10-10T09:32:45.612Z,5.30
2022-10-10T09:35:27.894Z,4.93
2022-10-10T09:38:11.163Z,5.20
2022-10-10T09:40:55.675Z,4.28
2022-10-10T09:43:23.585Z,5.05
2022-10-10T09:45:56.363Z,5.05
2022-10-10T09:48:40.402Z,4.85
2022-10-10T09:51:17.022Z,4.97
2022-10-10T09:53:47.275Z,5.07
2022-10-10T09:56:43.611Z,5.70
2022-10-10T09:59:47.631Z,5.28
2022-10-10T10:02:26.199Z,5.22
2022-10-10T10:04:55.315Z,5.90
2022-10-10T10:07:33.146Z,5.35
2022-10-10T10:10:12.013Z,5.70
2022-10-10T10:12:43.156Z,5.47
2022-10-10T10:15:18.189Z,5.10
2022-10-10T10:17:45.825Z,5.90
2022-10-10T10:20:35.897Z,5.38
2022-10-10T10:23:03.385Z,4.95
2022-10-10T10:25:38.511Z,4.82
2022-10-10T10:28:11.870Z,4.93
2022-10-10T10:30:41.816Z,4.45
2022-10-10T10:33:24.037Z,5.00
2022-10-10T10:36:31.997Z,4.18
2022-10-10T10:39:21.790Z,5.05
2022-10-10T10:42:02.859Z,4.38
2022-10-10T10:44:51.832Z,4.68
2022-10-10T10:47:58.005Z,3.80
2022-10-10T10:50:39.270Z,4.40
2022-10-10T10:53:47.618Z,4.18
2022-10-10T10:57:02.139Z,4.07
2022-10-10T11:00:22.025Z,3.80
2022-10-10T11:05:41.754Z,4.00
2022-10-10T11:08:30.370Z,4.43
2022-10-10T11:11:05.063Z,4.05
2022-10-10T11:13:47.066Z,4.10
2022-10-10T11:16:55.188Z,3.97
2022-10-10T11:19:34.532Z,3.78
2022-10-10T11:22:11.528Z,3.78
2022-10-10T11:24:53.958Z,3.50
2022-10-10T11:27:41.666Z,3.78
2022-10-10T11:30:13.291Z,4.20
2022-10-10T11:32:56.471Z,3.90
2022-10-10T11:35:53.332Z,3.80
2022-10-10T11:39:07.616Z,3.60
2022-10-10T11:42:05.962Z,3.88
2022-10-10T11:44:46.300Z,4.20
2022-10-10T11:47:42.339Z,4.00
2022-10-10T11:50:28.159Z,4.20
2022-10-10T11:53:33.482Z,3.70
2022-10-10T11:56:45.523Z,3.97
2022-10-10T11:59:21.837Z,4.45
2022-10-10T12:04:38.512Z,4.25
2022-10-10T12:07:17.687Z,4.03
2022-10-10T12:10:02.263Z,3.88
2022-10-10T12:12:47.311Z,3.80
2022-10-10T12:15:33.616Z,3.92
2022-10-10T12:18:03.840Z,3.60
2022-10-10T12:20:36.969Z,3.85
2022-10-10T12:23:29.626Z,3.45
2022-10-10T12:25:59.373Z,3.97
2022-10-10T12:28:56.250Z,3.70
2022-10-10T12:31:42.906Z,3.78
2022-10-10T12:34:15.351Z,3.63
2022-10-10T12:36:57.037Z,4.25
2022-10-10T12:41:59.956Z,4.25
2022-10-10T12:44:45.974Z,3.58
2022-10-10T12:47:16.023Z,4.15
2022-10-10T12:50:01.278Z,4.20
2022-10-10T12:52:52.573Z,3.90
2022-10-10T12:55:32.482Z,4.63
2022-10-10T12:58:04.079Z,3.70
2022-10-10T13:00:46.742Z,4.60
2022-10-10T13:03:40.129Z,3.55
2022-10-10T13:06:43.443Z,4.07
2022-10-10T13:09:25.020Z,4.43
2022-10-10T13:14:38.825Z,4.30
2022-10-10T13:17:27.180Z,4.68
2022-10-10T13:19:57.966Z,4.10
2022-10-10T13:22:27.116Z,4.47
2022-10-10T13:24:55.412Z,4.35
2022-10-10T13:27:28.218Z,4.50
2022-10-10T13:29:56.066Z,4.10
2022-10-10T13:32:35.258Z,5.00
2022-10-10T13:35:13.261Z,4.60
2022-10-10T13:37:43.839Z,5.10
2022-10-10T13:40:17.406Z,4.50
2022-10-10T13:42:51.136Z,5.07
2022-10-10T13:45:30.110Z,5.35
2022-10-10T13:48:02.324Z,4.63
2022-10-10T13:50:42.620Z,4.93
2022-10-10T13:53:28.795Z,4.95
2022-10-10T13:56:35.555Z,4.63
2022-10-10T13:59:06.147Z,5.10
2022-10-10T14:01:49.760Z,5.33
2022-10-10T14:04:38.270Z,4.40
2022-10-10T14:10:04.865Z,4.40
2022-10-10T14:12:42.477Z,5.30
2022-10-10T14:15:40.923Z,4.85
2022-10-10T14:18:25.973Z,4.25
2022-10-10T14:20:53.640Z,4.18
2022-10-10T14:23:22.346Z,4.05
2022-10-10T14:25:50.416Z,3.55
2022-10-10T14:28:23.814Z,4.90
2022-10-10T14:30:52.077Z,5.18
2022-10-10T14:33:20.707Z,5.22
2022-10-10T14:35:51.758Z,5.88
2022-10-10T14:38:19.740Z,4.95
2022-10-10T14:40:50.025Z,5.55
2022-10-10T14:43:20.567Z,5.60
2022-10-10T14:45:51.107Z,5.50
2022-10-10T14:48:19.282Z,5.35
2022-10-10T14:50:49.228Z,5.68
2022-10-10T14:53:16.945Z,5.60
2022-10-10T14:55:45.772Z,5.80
2022-10-10T14:58:21.922Z,5.95
2022-10-10T15:00:51.967Z,6.30
2022-10-10T15:03:19.558Z,6.57
2022-10-10T15:05:48.499Z,6.35
2022-10-10T15:08:18.522Z,6.35
2022-10-10T15:10:47.428Z,6.75
2022-10-10T15:13:16.732Z,6.05
2022-10-10T15:15:44.190Z,6.00
2022-10-10T15:18:39.593Z,6.80
2022-10-10T15:21:01.550Z,2.90
2022-10-10T15:23:29.169Z,1.00
2022-10-10T15:26:00.482Z,1.08
2022-10-10T15:28:28.596Z,1.08
2022-10-10T15:31:00.679Z,0.95
2022-10-10T15:33:28.311Z,1.00
2022-10-10T15:36:09.627Z,1.08
2022-10-10T15:38:38.596Z,0.98
2022-10-10T15:41:09.722Z,1.02
2022-10-10T15:43:54.469Z,1.00
2022-10-10T15:46:28.751Z,1.10
2022-10-10T15:49:03.258Z,0.95
2022-10-10T15:51:31.034Z,1.00
2022-10-10T15:54:00.120Z,1.10
2022-10-10T15:56:30.516Z,1.15
2022-10-10T15:59:00.733Z,1.20
2022-10-10T16:01:30.254Z,1.20
2022-10-10T16:03:58.445Z,1.42
2022-10-10T16:06:26.172Z,1.40
2022-10-10T16:09:09.930Z,1.45
2022-10-10T16:11:41.833Z,1.30
2022-10-10T16:14:09.691Z,1.30
2022-10-10T16:16:37.281Z,1.58
2022-10-10T16:19:04.834Z,1.60
2022-10-10T16:21:33.452Z,1.58
2022-10-10T16:24:01.300Z,1.23
2022-10-10T16:26:33.382Z,1.58
2022-10-10T16:29:01.830Z,1.40
2022-10-10T16:31:30.419Z,1.58
2022-10-10T16:33:59.413Z,1.88
2022-10-10T16:36:31.375Z,1.77
2022-10-10T16:39:00.051Z,1.70
2022-10-10T16:41:48.734Z,1.63
2022-10-10T16:44:17.650Z,1.75
2022-10-10T16:46:45.362Z,1.90
2022-10-10T16:49:16.554Z,2.00
2022-10-10T16:51:44.111Z,1.90
2022-10-10T16:54:11.669Z,1.77
2022-10-10T16:56:39.029Z,1.85
2022-10-10T16:59:06.400Z,2.08
2022-10-10T17:01:34.870Z,2.00
2022-10-10T17:04:03.052Z,2.67
2022-10-10T17:06:37.216Z,2.50
2022-10-10T17:09:07.790Z,2.58
2022-10-10T17:11:35.341Z,1.70
2022-10-10T17:14:03.539Z,2.58
2022-10-10T17:19:18.454Z,2.30
2022-10-10T17:21:45.876Z,2.10
2022-10-10T17:24:13.327Z,2.33
2022-10-10T17:26:40.783Z,2.45
2022-10-10T17:29:08.174Z,1.90
2022-10-10T17:31:35.635Z,2.30
2022-10-10T17:34:03.173Z,2.42
2022-10-10T17:36:31.443Z,2.40
2022-10-10T17:39:02.010Z,2.28
2022-10-10T17:41:29.948Z,2.03
2022-10-10T17:43:57.502Z,2.47
2022-10-10T17:46:34.815Z,2.55
2022-10-10T17:49:05.529Z,2.70
2022-10-10T17:51:35.175Z,2.42
2022-10-10T17:54:05.844Z,3.13
2022-10-10T17:56:34.779Z,2.97
2022-10-10T17:59:06.304Z,2.85
2022-10-10T18:01:35.983Z,2.80
2022-10-10T18:04:04.049Z,2.97
2022-10-10T18:06:32.970Z,2.95
2022-10-10T18:09:01.001Z,2.85
2022-10-10T18:11:32.188Z,3.28
2022-10-10T18:14:02.793Z,3.20
2022-10-10T18:16:33.944Z,3.53
2022-10-10T18:19:03.864Z,2.80
2022-10-10T18:21:32.066Z,3.22
2022-10-10T18:24:00.724Z,2.85
2022-10-10T18:26:30.635Z,3.83
2022-10-10T18:28:58.641Z,5.38
2022-10-10T18:31:33.616Z,5.15
2022-10-10T18:34:02.861Z,5.85
2022-10-10T18:36:34.687Z,6.40
2022-10-10T18:39:09.552Z,6.97
2022-10-10T18:41:36.968Z,6.13
2022-10-10T18:44:14.261Z,5.97
2022-10-10T18:46:41.962Z,5.25
2022-10-10T18:49:13.457Z,4.93
2022-10-10T18:51:43.162Z,4.72
2022-10-10T18:54:16.174Z,5.57
2022-10-10T18:56:45.813Z,5.20
2022-10-10T18:59:22.125Z,5.63
2022-10-10T19:01:52.212Z,5.07
2022-10-10T19:04:21.632Z,5.03
2022-10-10T19:06:54.690Z,4.72
2022-10-10T19:09:25.002Z,4.90
2022-10-10T19:11:53.346Z,5.10
2022-10-10T19:14:21.054Z,4.72
2022-10-10T19:16:48.678Z,4.65
2022-10-10T19:19:18.900Z,5.50
2022-10-10T19:21:48.403Z,5.90
2022-10-10T19:24:20.770Z,5.88
2022-10-10T19:26:56.736Z,6.03
2022-10-10T19:29:26.248Z,5.53
2022-10-10T19:31:54.187Z,4.95
2022-10-10T19:34:23.004Z,4.97
2022-10-10T19:36:50.395Z,4.95
2022-10-10T19:39:17.841Z,5.07
2022-10-10T19:41:45.267Z,5.03
2022-10-10T19:44:12.756Z,6.30
2022-10-10T19:46:40.166Z,5.13
2022-10-10T19:49:07.565Z,5.32
2022-10-10T19:51:37.019Z,5.28
2022-10-10T19:54:04.459Z,5.93
2022-10-10T19:56:31.870Z,5.40
2022-10-10T19:59:04.196Z,4.95
2022-10-10T20:01:31.759Z,4.47
2022-10-10T20:03:59.366Z,4.60
2022-10-10T20:06:28.422Z,5.38
2022-10-10T20:08:56.126Z,4.90
2022-10-10T20:11:26.171Z,5.57
2022-10-10T20:13:55.229Z,4.93
2022-10-10T20:16:23.902Z,4.60
2022-10-10T20:18:51.628Z,5.15
2022-10-10T20:21:31.491Z,4.97
2022-10-10T20:24:03.786Z,4.97
2022-10-10T20:26:32.142Z,5.00
2022-10-10T20:29:00.112Z,5.38
2022-10-10T20:31:31.687Z,4.75
2022-10-10T20:34:01.609Z,4.53
2022-10-10T20:36:32.499Z,4.93
2022-10-10T20:39:06.304Z,4.30
2022-10-10T20:41:35.896Z,4.60
2022-10-10T20:44:06.671Z,4.43
2022-10-10T20:46:37.635Z,4.20
2022-10-10T20:49:10.319Z,4.80
2022-10-10T20:51:38.232Z,4.72
2022-10-10T20:54:07.461Z,4.57
2022-10-10T20:56:35.684Z,4.43
2022-10-10T20:59:03.315Z,4.70
2022-10-10T21:01:31.540Z,4.60
2022-10-10T21:03:59.747Z,4.57
2022-10-10T21:06:32.042Z,4.75
2022-10-10T21:09:03.618Z,4.53
2022-10-10T21:11:31.014Z,4.95
2022-10-10T21:14:00.771Z,3.97
2022-10-10T21:16:37.972Z,4.75
2022-10-10T21:19:09.245Z,4.18
2022-10-10T21:21:36.949Z,4.30
2022-10-10T21:24:07.971Z,4.60
2022-10-10T21:26:35.362Z,6.13
2022-10-10T21:29:03.766Z,4.95
2022-10-10T21:31:37.649Z,5.25
2022-10-10T21:34:08.621Z,5.38
2022-10-10T21:36:36.450Z,5.32
2022-10-10T21:39:06.816Z,6.63
2022-10-10T21:41:34.923Z,6.00
2022-10-10T21:44:02.471Z,5.75
2022-10-10T21:46:36.317Z,6.65
2022-10-10T21:49:10.880Z,5.82
2022-10-10T21:51:42.564Z,6.75
2022-10-10T21:56:38.577Z,6.10
2022-10-10T21:59:07.621Z,5.82
2022-10-10T22:01:37.182Z,6.18
2022-10-10T22:04:06.002Z,5.90
2022-10-10T22:06:33.668Z,5.43
2022-10-10T22:09:02.459Z,5.57
2022-10-10T22:11:32.889Z,5.50
2022-10-10T22:14:02.371Z,5.90
2022-10-10T22:16:32.123Z,5.55
2022-10-10T22:19:00.757Z,6.40
2022-10-10T22:21:31.552Z,6.07
2022-10-10T22:24:06.186Z,5.90
2022-10-10T22:26:35.094Z,5.97
2022-10-10T22:29:03.677Z,5.88
2022-10-10T22:31:31.092Z,6.30
2022-10-10T22:33:58.530Z,6.43
2022-10-10T22:36:26.356Z,6.32
2022-10-10T22:38:53.786Z,6.78
2022-10-10T22:41:21.620Z,6.22
2022-10-10T22:43:49.742Z,7.03
2022-10-10T22:46:17.378Z,6.35
2022-10-10T22:48:44.892Z,7.25
2022-10-10T22:51:16.206Z,6.78
2022-10-10T22:53:46.102Z,6.60
2022-10-10T22:56:19.088Z,6.30
2022-10-10T22:58:50.476Z,6.28
2022-10-10T23:01:22.563Z,5.85
2022-10-10T23:03:53.257Z,5.97
2022-10-10T23:06:20.710Z,5.90
2022-10-10T23:08:48.138Z,6.68
2022-10-10T23:11:15.787Z,6.82
2022-10-10T23:13:43.747Z,6.25
2022-10-10T23:16:12.051Z,6.32
2022-10-10T23:18:39.449Z,6.13
2022-10-10T23:21:06.914Z,5.72
2022-10-10T23:23:34.315Z,7.25
2022-10-10T23:26:07.040Z,6.10
2022-10-10T23:28:36.150Z,5.90
2022-10-10T23:31:09.330Z,5.95
2022-10-10T23:33:38.662Z,6.60
2022-10-10T23:36:13.026Z,6.20
2022-10-10T23:38:41.789Z,6.30
2022-10-10T23:41:11.449Z,6.35
2022-10-10T23:43:39.465Z,5.28
2022-10-10T23:46:08.030Z,6.25
2022-10-10T23:48:36.795Z,5.80
2022-10-10T23:51:04.847Z,5.35
2022-10-10T23:53:32.763Z,5.90
2022-10-10T23:56:00.159Z,6.07
2022-10-10T23:58:27.669Z,5.28
